createdAt,value
2018-11-26T00:00:33.560Z,12.80
2018-11-26T00:03:02.454Z,13.43
2018-11-26T00:05:31.184Z,13.03
2018-11-26T00:07:59.507Z,12.90
2018-11-26T00:10:38.999Z,13.47
2018-11-26T00:13:07.991Z,13.73
2018-11-26T00:15:36.465Z,13.33
2018-11-26T00:18:06.280Z,13.63
2018-11-26T00:20:34.556Z,14.37
2018-11-26T00:23:02.831Z,15.80
2018-11-26T00:25:31.124Z,14.30
2018-11-26T00:27:59.537Z,14.60
2018-11-26T00:30:27.935Z,14.77
2018-11-26T00:32:56.855Z,14.00
2018-11-26T00:35:25.489Z,15.27
2018-11-26T00:37:53.785Z,15.47
2018-11-26T00:40:22.174Z,14.57
2018-11-26T00:42:50.502Z,14.03
2018-11-26T00:45:19.286Z,14.87
2018-11-26T00:47:47.583Z,15.43
2018-11-26T00:52:54.680Z,14.23
2018-11-26T00:55:22.974Z,14.67
2018-11-26T00:57:52.070Z,14.07
2018-11-26T01:00:20.868Z,13.53
2018-11-26T01:02:49.862Z,15.07
2018-11-26T01:05:30.499Z,14.37
2018-11-26T01:07:58.783Z,16.53
2018-11-26T01:10:27.509Z,14.67
2018-11-26T01:12:55.814Z,16.20
2018-11-26T01:15:24.094Z,15.97
2018-11-26T01:17:52.746Z,15.30
2018-11-26T01:20:21.070Z,15.43
2018-11-26T01:22:49.358Z,14.83
2018-11-26T01:25:17.675Z,15.00
2018-11-26T01:27:45.960Z,16.03
2018-11-26T01:30:14.451Z,14.67
2018-11-26T01:32:44.133Z,14.67
2018-11-26T01:35:12.866Z,14.97
2018-11-26T01:40:23.203Z,14.80
2018-11-26T01:42:51.589Z,15.73
2018-11-26T01:45:19.870Z,14.33
2018-11-26T01:47:48.983Z,14.90
2018-11-26T01:50:17.354Z,15.90
2018-11-26T01:52:45.688Z,15.67
2018-11-26T01:55:13.958Z,15.13
2018-11-26T01:57:43.082Z,14.40
2018-11-26T02:00:15.062Z,16.20
2018-11-26T02:02:43.826Z,15.30
2018-11-26T02:05:12.473Z,16.30
2018-11-26T02:07:40.776Z,14.87
2018-11-26T02:10:10.470Z,16.90
2018-11-26T02:12:38.779Z,15.13
2018-11-26T02:15:09.008Z,15.47
2018-11-26T02:17:37.451Z,13.93
2018-11-26T02:20:06.278Z,14.73
2018-11-26T02:22:34.542Z,15.17
2018-11-26T02:25:03.354Z,16.50
2018-11-26T02:27:31.718Z,14.90
2018-11-26T02:30:00.095Z,15.77
2018-11-26T02:32:29.102Z,15.33
2018-11-26T02:34:58.319Z,16.20
2018-11-26T02:37:26.964Z,15.87
2018-11-26T02:39:55.858Z,17.30
2018-11-26T02:42:24.339Z,15.47
2018-11-26T02:44:52.607Z,16.20
2018-11-26T02:47:21.026Z,18.07
2018-11-26T02:49:49.322Z,16.77
2018-11-26T02:52:17.886Z,17.27
2018-11-26T02:54:46.141Z,18.43
2018-11-26T02:57:14.446Z,17.23
2018-11-26T02:59:43.223Z,18.40
2018-11-26T03:02:12.118Z,18.33
2018-11-26T03:04:41.210Z,16.90
2018-11-26T03:07:09.484Z,18.23
2018-11-26T03:09:37.758Z,17.87
2018-11-26T03:12:06.096Z,16.90
2018-11-26T03:14:34.395Z,19.47
2018-11-26T03:17:02.742Z,18.17
2018-11-26T03:19:31.339Z,17.30
2018-11-26T03:22:00.078Z,20.07
2018-11-26T03:24:29.466Z,19.27
2018-11-26T03:26:57.759Z,20.10
2018-11-26T03:29:26.017Z,20.93
2018-11-26T03:31:54.879Z,21.77
2018-11-26T03:34:24.387Z,18.13
2018-11-26T03:36:52.687Z,20.53
2018-11-26T03:39:21.603Z,22.00
2018-11-26T03:41:49.953Z,21.47
2018-11-26T03:44:18.209Z,20.30
2018-11-26T03:46:46.502Z,20.77
2018-11-26T03:49:15.246Z,21.20
2018-11-26T03:51:43.569Z,24.10
2018-11-26T03:54:11.840Z,19.60
2018-11-26T03:56:40.133Z,19.90
2018-11-26T03:59:08.756Z,20.10
2018-11-26T04:01:37.032Z,19.27
2018-11-26T04:04:05.642Z,19.53
2018-11-26T04:06:33.956Z,18.30
2018-11-26T04:09:02.272Z,18.00
2018-11-26T04:11:30.802Z,17.47
2018-11-26T04:13:59.070Z,16.73
2018-11-26T04:16:27.348Z,16.43
2018-11-26T04:18:56.317Z,18.13
2018-11-26T04:21:24.584Z,19.07
2018-11-26T04:23:53.624Z,17.13
2018-11-26T04:26:21.901Z,19.03
2018-11-26T04:28:50.183Z,17.87
2018-11-26T04:31:18.458Z,15.90
2018-11-26T04:33:48.114Z,17.67
2018-11-26T04:36:16.401Z,19.53
2018-11-26T04:38:44.693Z,16.13
2018-11-26T04:41:13.378Z,17.00
2018-11-26T04:43:41.656Z,17.17
2018-11-26T04:46:09.934Z,18.47
2018-11-26T04:48:38.719Z,17.30
2018-11-26T04:51:06.998Z,17.00
2018-11-26T04:53:35.282Z,17.83
2018-11-26T04:56:04.861Z,18.93
2018-11-26T04:58:33.722Z,18.17
2018-11-26T05:01:02.651Z,19.97
2018-11-26T05:03:31.457Z,18.57
2018-11-26T05:05:59.729Z,16.37
2018-11-26T05:08:28.018Z,17.60
2018-11-26T05:10:56.331Z,20.10
2018-11-26T05:13:25.105Z,23.87
2018-11-26T05:15:53.399Z,18.43
2018-11-26T05:18:22.895Z,19.07
2018-11-26T05:20:51.526Z,19.83
2018-11-26T05:23:19.823Z,18.77
2018-11-26T05:25:48.094Z,19.20
2018-11-26T05:28:16.380Z,21.10
2018-11-26T05:30:44.649Z,20.30
2018-11-26T05:33:13.731Z,23.67
2018-11-26T05:35:42.402Z,21.17
2018-11-26T05:38:11.191Z,20.40
2018-11-26T05:40:40.112Z,21.63
2018-11-26T05:43:08.376Z,20.03
2018-11-26T05:45:36.661Z,21.97
2018-11-26T05:48:04.961Z,20.00
2018-11-26T05:50:33.238Z,20.93
2018-11-26T05:53:01.587Z,19.50
2018-11-26T05:55:29.878Z,23.27
2018-11-26T05:57:58.835Z,22.33
2018-11-26T06:00:32.285Z,23.30
2018-11-26T06:03:00.993Z,20.80
2018-11-26T06:05:29.720Z,23.20
2018-11-26T06:07:58.308Z,21.83
2018-11-26T06:10:26.573Z,22.47
2018-11-26T06:18:09.523Z,22.10
2018-11-26T06:20:37.796Z,21.60
2018-11-26T06:23:06.416Z,26.07
2018-11-26T06:25:34.721Z,22.57
2018-11-26T06:28:03.019Z,23.03
2018-11-26T06:30:31.923Z,23.10
2018-11-26T06:33:00.599Z,22.13
2018-11-26T06:35:29.255Z,21.83
2018-11-26T06:37:58.843Z,25.47
2018-11-26T06:40:27.791Z,25.67
2018-11-26T06:42:56.081Z,23.63
2018-11-26T06:45:24.358Z,24.53
2018-11-26T06:47:52.683Z,29.80
2018-11-26T06:50:21.585Z,23.93
2018-11-26T06:52:49.869Z,30.13
2018-11-26T06:55:19.972Z,25.80
2018-11-26T06:57:48.344Z,23.07
2018-11-26T07:00:17.689Z,27.23
2018-11-26T07:02:46.005Z,24.83
2018-11-26T07:05:20.553Z,25.27
2018-11-26T07:07:48.850Z,27.00
2018-11-26T07:10:17.714Z,23.13
2018-11-26T07:12:46.058Z,24.43
2018-11-26T07:15:16.742Z,21.47
2018-11-26T07:17:45.791Z,24.23
2018-11-26T07:20:15.854Z,23.03
2018-11-26T07:22:44.139Z,21.23
2018-11-26T07:25:13.391Z,26.37
2018-11-26T07:27:42.090Z,25.47
2018-11-26T07:30:14.482Z,23.47
2018-11-26T07:32:43.402Z,22.37
2018-11-26T07:35:12.492Z,27.43
2018-11-26T07:37:40.822Z,23.03
2018-11-26T07:40:12.317Z,25.73
2018-11-26T07:42:42.853Z,23.87
2018-11-26T07:45:12.562Z,26.47
2018-11-26T07:47:40.856Z,22.30
2018-11-26T07:50:12.375Z,26.80
2018-11-26T07:52:40.653Z,23.43
2018-11-26T07:55:14.087Z,26.10
2018-11-26T07:57:43.357Z,25.43
2018-11-26T08:00:13.626Z,29.37
2018-11-26T08:02:42.847Z,24.07
2018-11-26T08:05:13.214Z,26.73
2018-11-26T08:07:41.489Z,30.50
2018-11-26T08:10:11.877Z,26.50
2018-11-26T08:12:40.362Z,26.00
2018-11-26T08:15:11.606Z,30.87
2018-11-26T08:17:39.928Z,28.33
2018-11-26T08:20:09.364Z,26.57
2018-11-26T08:22:37.708Z,25.47
2018-11-26T08:25:08.531Z,26.00
2018-11-26T08:27:37.064Z,26.17
2018-11-26T08:30:10.503Z,25.60
2018-11-26T08:32:39.264Z,24.57
2018-11-26T08:35:08.185Z,29.63
2018-11-26T08:37:36.450Z,30.20
2018-11-26T08:40:11.259Z,25.57
2018-11-26T08:42:45.747Z,31.83
2018-11-26T08:45:19.255Z,25.30
2018-11-26T08:47:52.894Z,30.00
2018-11-26T08:50:21.491Z,32.20
2018-11-26T08:52:49.746Z,25.50
2018-11-26T08:55:18.036Z,24.47
2018-11-26T08:57:46.698Z,26.13
2018-11-26T09:00:14.992Z,25.93
2018-11-26T09:02:45.275Z,24.73
2018-11-26T09:05:23.919Z,29.70
2018-11-26T09:07:47.778Z,24.60
2018-11-26T09:10:16.064Z,28.57
2018-11-26T09:12:44.351Z,25.83
2018-11-26T09:15:13.086Z,24.43
2018-11-26T09:17:41.330Z,23.63
2018-11-26T09:20:10.871Z,25.23
2018-11-26T09:22:39.495Z,24.83
2018-11-26T09:25:10.659Z,26.13
2018-11-26T09:27:39.040Z,26.33
2018-11-26T09:30:12.006Z,27.60
2018-11-26T09:32:41.310Z,24.60
2018-11-26T09:35:12.403Z,22.40
2018-11-26T09:37:41.283Z,22.07
2018-11-26T09:40:12.536Z,24.57
2018-11-26T09:42:40.954Z,23.13
2018-11-26T09:45:14.833Z,21.10
2018-11-26T09:47:43.100Z,26.33
2018-11-26T09:50:13.846Z,21.93
2018-11-26T09:52:42.211Z,23.17
2018-11-26T09:55:12.770Z,24.80
2018-11-26T09:57:41.071Z,23.40
2018-11-26T10:00:14.088Z,21.20
2018-11-26T10:02:43.382Z,24.50
2018-11-26T10:05:16.071Z,20.53
2018-11-26T10:07:44.355Z,21.90
2018-11-26T10:10:12.870Z,21.80
2018-11-26T10:12:41.832Z,19.07
2018-11-26T10:15:16.717Z,20.90
2018-11-26T10:17:45.456Z,20.17
2018-11-26T10:20:15.270Z,23.07
2018-11-26T10:22:44.079Z,23.47
2018-11-26T10:25:13.396Z,21.40
2018-11-26T10:27:41.711Z,23.07
2018-11-26T10:30:11.978Z,19.97
2018-11-26T10:32:41.187Z,21.10
2018-11-26T10:35:11.306Z,22.93
2018-11-26T10:37:39.612Z,20.23
2018-11-26T10:40:12.455Z,19.57
2018-11-26T10:42:40.783Z,21.63
2018-11-26T10:45:12.658Z,19.50
2018-11-26T10:47:40.937Z,20.63
2018-11-26T10:50:15.174Z,22.80
2018-11-26T10:52:44.601Z,19.80
2018-11-26T10:55:14.323Z,20.90
2018-11-26T10:57:42.623Z,19.00
2018-11-26T11:02:18.514Z,20.90
2018-11-26T11:04:47.729Z,20.60
2018-11-26T11:07:15.455Z,23.93
2018-11-26T11:09:43.739Z,21.30
2018-11-26T11:12:12.733Z,27.37
2018-11-26T11:14:41.029Z,23.73
2018-11-26T11:17:09.435Z,24.13
2018-11-26T11:19:39.596Z,24.47
2018-11-26T11:22:06.995Z,24.53
2018-11-26T11:24:35.395Z,21.43
2018-11-26T11:27:04.039Z,25.43
2018-11-26T11:29:32.337Z,24.60
2018-11-26T11:32:01.093Z,22.37
2018-11-26T11:34:29.716Z,28.03
2018-11-26T11:36:58.672Z,21.60
2018-11-26T11:39:26.978Z,24.80
2018-11-26T11:41:55.768Z,22.97
2018-11-26T11:44:24.048Z,26.63
2018-11-26T11:46:52.370Z,26.40
2018-11-26T11:49:20.668Z,25.50
2018-11-26T11:51:48.964Z,27.23
2018-11-26T11:54:17.328Z,30.00
2018-11-26T11:56:45.658Z,26.93
2018-11-26T11:59:13.964Z,23.43
2018-11-26T12:01:42.243Z,26.27
2018-11-26T12:04:11.082Z,22.87
2018-11-26T12:06:39.356Z,25.57
2018-11-26T12:09:09.670Z,23.87
2018-11-26T12:11:38.400Z,26.43
2018-11-26T12:14:07.255Z,23.50
2018-11-26T12:16:35.554Z,23.47
2018-11-26T12:19:04.117Z,24.80
2018-11-26T12:21:32.424Z,26.27
2018-11-26T12:24:01.340Z,24.67
2018-11-26T12:26:29.643Z,28.10
2018-11-26T12:28:58.030Z,24.60
2018-11-26T12:31:26.359Z,26.63
2018-11-26T12:33:55.326Z,25.40
2018-11-26T12:36:23.632Z,27.00
2018-11-26T12:38:51.899Z,26.80
2018-11-26T12:41:20.827Z,24.63
2018-11-26T12:43:49.121Z,26.87
2018-11-26T12:46:17.423Z,29.00
2018-11-26T12:48:45.720Z,24.10
2018-11-26T12:51:14.007Z,25.07
2018-11-26T12:53:42.495Z,25.87
2018-11-26T12:56:11.059Z,28.60
2018-11-26T12:58:39.354Z,25.53
2018-11-26T13:01:07.729Z,23.90
2018-11-26T13:03:36.642Z,23.83
2018-11-26T13:06:06.354Z,24.07
2018-11-26T13:08:34.765Z,25.03
2018-11-26T13:13:37.179Z,26.23
2018-11-26T13:16:05.658Z,25.63
2018-11-26T13:18:34.604Z,25.80
2018-11-26T13:21:02.968Z,28.17
2018-11-26T13:23:31.497Z,27.20
2018-11-26T13:25:59.993Z,24.57
2018-11-26T13:28:28.403Z,26.17
2018-11-26T13:30:56.792Z,26.80
2018-11-26T13:33:25.543Z,24.63
2018-11-26T13:35:54.332Z,29.17
2018-11-26T13:38:22.632Z,25.70
2018-11-26T13:40:51.524Z,30.87
2018-11-26T13:43:19.825Z,26.03
2018-11-26T13:45:49.265Z,26.03
2018-11-26T13:48:18.628Z,25.77
2018-11-26T13:50:50.469Z,26.37
2018-11-26T13:53:19.728Z,26.60
2018-11-26T13:55:47.987Z,28.03
2018-11-26T13:58:16.388Z,26.47
2018-11-26T14:00:44.952Z,26.90
2018-11-26T14:03:13.832Z,26.83
2018-11-26T14:05:42.150Z,27.63
2018-11-26T14:08:10.452Z,23.17
2018-11-26T14:10:38.820Z,23.43
2018-11-26T14:13:10.050Z,22.97
2018-11-26T14:15:38.341Z,31.83
2018-11-26T14:18:07.253Z,26.70
2018-11-26T14:20:35.610Z,23.60
2018-11-26T14:23:03.905Z,26.07
2018-11-26T14:25:32.266Z,26.07
2018-11-26T14:28:00.575Z,24.70
2018-11-26T14:30:29.639Z,24.27
2018-11-26T14:32:58.338Z,25.47
2018-11-26T14:35:26.979Z,22.90
2018-11-26T14:37:58.350Z,25.77
2018-11-26T14:40:30.413Z,22.90
2018-11-26T14:42:58.750Z,21.93
2018-11-26T14:45:27.741Z,26.83
2018-11-26T14:47:56.516Z,27.40
2018-11-26T14:50:24.891Z,22.70
2018-11-26T14:52:53.654Z,25.50
2018-11-26T14:55:24.168Z,29.10
2018-11-26T14:57:52.442Z,30.63
2018-11-26T15:00:21.156Z,23.13
2018-11-26T15:02:49.552Z,23.43
2018-11-26T15:05:18.303Z,25.47
2018-11-26T15:07:46.673Z,24.20
2018-11-26T15:10:16.069Z,27.23
2018-11-26T15:12:45.385Z,25.63
2018-11-26T15:15:14.839Z,25.67
2018-11-26T15:17:43.664Z,26.93
2018-11-26T15:20:14.376Z,26.57
2018-11-26T15:22:42.709Z,26.43
2018-11-26T15:25:13.280Z,21.73
2018-11-26T15:27:41.648Z,23.03
2018-11-26T15:30:12.150Z,21.73
2018-11-26T15:32:40.688Z,27.73
2018-11-26T15:35:13.959Z,27.03
2018-11-26T15:37:42.878Z,22.23
2018-11-26T15:40:12.968Z,29.23
2018-11-26T15:42:41.428Z,24.17
2018-11-26T15:45:13.583Z,25.23
2018-11-26T15:47:42.493Z,26.80
2018-11-26T15:50:10.869Z,28.87
2018-11-26T15:52:39.250Z,25.50
2018-11-26T15:55:09.364Z,23.57
2018-11-26T15:57:37.723Z,29.53
2018-11-26T16:00:10.141Z,25.40
2018-11-26T16:02:38.444Z,28.77
2018-11-26T16:05:08.615Z,25.90
2018-11-26T16:07:36.893Z,26.17
2018-11-26T16:10:06.500Z,28.17
2018-11-26T16:12:35.576Z,29.43
2018-11-26T16:15:03.987Z,27.77
2018-11-26T16:17:32.264Z,24.37
2018-11-26T16:20:01.300Z,23.80
2018-11-26T16:22:29.629Z,27.57
2018-11-26T16:24:57.909Z,25.30
2018-11-26T16:27:26.656Z,25.23
2018-11-26T16:29:55.082Z,24.03
2018-11-26T16:32:23.980Z,25.70
2018-11-26T16:34:52.834Z,26.63
2018-11-26T16:37:21.522Z,24.00
2018-11-26T16:39:50.298Z,28.03
2018-11-26T16:42:20.034Z,27.60
2018-11-26T16:44:48.324Z,27.57
2018-11-26T16:47:16.631Z,25.63
2018-11-26T16:49:44.925Z,23.20
2018-11-26T16:52:13.196Z,25.23
2018-11-26T16:54:41.924Z,26.13
2018-11-26T16:57:10.448Z,25.83
2018-11-26T16:59:39.427Z,26.77
2018-11-26T17:02:07.842Z,24.47
2018-11-26T17:04:37.336Z,26.13
2018-11-26T17:07:05.676Z,25.07
2018-11-26T17:09:34.040Z,30.20
2018-11-26T17:12:02.353Z,24.83
2018-11-26T17:14:31.848Z,25.80
2018-11-26T17:17:00.134Z,27.27
2018-11-26T17:19:29.191Z,27.27
2018-11-26T17:21:58.148Z,28.87
2018-11-26T17:24:26.851Z,26.47
2018-11-26T17:26:56.132Z,25.77
2018-11-26T17:29:24.575Z,28.20
2018-11-26T17:31:53.488Z,34.53
2018-11-26T17:34:22.127Z,31.33
2018-11-26T17:36:50.421Z,28.03
2018-11-26T17:39:18.961Z,27.40
2018-11-26T17:41:47.740Z,31.53
2018-11-26T17:44:16.059Z,28.57
2018-11-26T17:46:44.484Z,33.23
2018-11-26T17:49:12.900Z,25.00
2018-11-26T17:54:10.167Z,30.37
2018-11-26T17:56:38.549Z,23.63
2018-11-26T17:59:06.939Z,23.20
2018-11-26T18:01:39.532Z,29.27
2018-11-26T18:04:09.121Z,25.77
2018-11-26T18:06:37.453Z,26.33
2018-11-26T18:09:09.881Z,24.30
2018-11-26T18:11:38.480Z,28.30
2018-11-26T18:14:07.260Z,26.77
2018-11-26T18:16:35.949Z,27.17
2018-11-26T18:19:04.778Z,24.83
2018-11-26T18:21:33.161Z,26.37
2018-11-26T18:24:01.864Z,25.93
2018-11-26T18:26:30.225Z,25.73
2018-11-26T18:28:58.986Z,31.03
2018-11-26T18:31:27.296Z,33.00
2018-11-26T18:33:56.060Z,24.83
2018-11-26T18:36:24.333Z,23.77
2018-11-26T18:38:52.554Z,27.57
2018-11-26T18:41:21.281Z,27.27
2018-11-26T18:43:49.569Z,28.60
2018-11-26T18:46:17.860Z,29.23
2018-11-26T18:48:46.243Z,25.47
2018-11-26T18:51:15.336Z,25.07
2018-11-26T18:53:44.549Z,26.50
2018-11-26T18:56:13.556Z,27.17
2018-11-26T18:58:42.709Z,29.83
2018-11-26T19:01:11.088Z,26.57
2018-11-26T19:03:39.769Z,24.43
2018-11-26T19:06:08.213Z,23.80
2018-11-26T19:08:36.882Z,26.20
2018-11-26T19:11:13.816Z,25.13
2018-11-26T19:13:53.983Z,27.53
2018-11-26T19:16:24.321Z,30.00
2018-11-26T19:18:53.068Z,24.70
2018-11-26T19:21:21.791Z,27.07
2018-11-26T19:23:50.472Z,25.40
2018-11-26T19:26:18.774Z,27.37
2018-11-26T19:28:47.138Z,27.77
2018-11-26T19:33:54.265Z,28.57
2018-11-26T19:36:22.548Z,29.23
2018-11-26T19:38:50.913Z,32.27
2018-11-26T19:41:20.349Z,27.10
2018-11-26T19:43:49.048Z,28.53
2018-11-26T19:46:17.411Z,28.10
2018-11-26T19:48:45.711Z,25.30
2018-11-26T19:51:14.126Z,25.73
2018-11-26T19:53:42.660Z,25.87
2018-11-26T19:56:11.234Z,32.90
2018-11-26T19:58:39.750Z,25.57
2018-11-26T20:01:08.216Z,27.93
2018-11-26T20:03:42.415Z,25.60
2018-11-26T20:06:14.632Z,28.50
2018-11-26T20:08:44.332Z,27.00
2018-11-26T20:11:12.644Z,27.40
2018-11-26T20:13:41.562Z,28.67
2018-11-26T20:16:13.475Z,27.90
2018-11-26T20:18:42.725Z,25.43
2018-11-26T20:21:11.041Z,25.07
2018-11-26T20:23:39.743Z,28.17
2018-11-26T20:26:08.311Z,26.50
2018-11-26T20:28:36.595Z,25.97
2018-11-26T20:31:05.500Z,28.53
2018-11-26T20:33:34.409Z,25.37
2018-11-26T20:36:03.316Z,25.43
2018-11-26T20:38:31.865Z,25.43
2018-11-26T20:41:00.788Z,26.60
2018-11-26T20:43:29.161Z,25.07
2018-11-26T20:45:57.848Z,24.50
2018-11-26T20:48:30.481Z,25.60
2018-11-26T20:50:54.708Z,30.77
2018-11-26T20:53:25.021Z,28.00
2018-11-26T20:55:53.812Z,28.13
2018-11-26T20:58:22.168Z,24.87
2018-11-26T21:03:32.108Z,34.60
2018-11-26T21:06:00.491Z,29.43
2018-11-26T21:08:28.769Z,36.30
2018-11-26T21:10:57.103Z,30.13
2018-11-26T21:13:25.424Z,27.37
2018-11-26T21:15:54.563Z,28.50
2018-11-26T21:18:23.257Z,28.20
2018-11-26T21:20:51.784Z,26.50
2018-11-26T21:23:24.156Z,26.23
2018-11-26T21:25:52.895Z,32.47
2018-11-26T21:28:21.977Z,35.90
2018-11-26T21:30:52.291Z,29.73
2018-11-26T21:33:19.323Z,38.70
2018-11-26T21:35:48.693Z,31.97
2018-11-26T21:38:17.065Z,29.27
2018-11-26T21:40:46.649Z,31.23
2018-11-26T21:43:15.351Z,27.73
2018-11-26T21:45:47.341Z,27.27
2018-11-26T21:48:15.840Z,28.87
2018-11-26T21:50:44.117Z,37.17
2018-11-26T21:55:48.079Z,28.43
2018-11-26T21:58:16.389Z,28.83
2018-11-26T22:00:45.041Z,27.57
2018-11-26T22:03:14.697Z,26.17
2018-11-26T22:05:43.711Z,31.60
2018-11-26T22:08:13.088Z,26.90
2018-11-26T22:13:06.705Z,27.50
2018-11-26T22:15:35.085Z,26.03
2018-11-26T22:18:04.648Z,28.83
2018-11-26T22:20:32.969Z,35.83
2018-11-26T22:23:01.313Z,24.77
2018-11-26T22:25:30.073Z,26.20
2018-11-26T22:27:58.462Z,32.33
2018-11-26T22:30:31.580Z,27.37
2018-11-26T22:33:01.024Z,26.33
2018-11-26T22:35:29.743Z,24.60
2018-11-26T22:37:58.975Z,24.50
2018-11-26T22:40:27.795Z,23.80
2018-11-26T22:42:56.217Z,25.90
2018-11-26T22:45:32.021Z,25.60
2018-11-26T22:48:06.729Z,22.43
2018-11-26T22:50:36.024Z,25.53
2018-11-26T22:53:04.605Z,27.97
2018-11-26T22:55:33.615Z,33.77
2018-11-26T22:58:01.944Z,25.40
2018-11-26T23:00:39.601Z,28.23
2018-11-26T23:03:07.919Z,25.50
2018-11-26T23:05:36.514Z,30.20
2018-11-26T23:08:05.088Z,36.60
2018-11-26T23:10:33.366Z,26.27
2018-11-26T23:13:01.666Z,29.23
2018-11-26T23:15:30.040Z,24.30
2018-11-26T23:17:58.732Z,32.33
2018-11-26T23:20:27.041Z,29.13
2018-11-26T23:22:55.820Z,27.30
2018-11-26T23:25:24.385Z,27.50
2018-11-26T23:27:53.021Z,33.43
2018-11-26T23:30:23.511Z,22.43
2018-11-26T23:32:58.972Z,33.33
2018-11-26T23:35:27.672Z,32.33
2018-11-26T23:37:56.269Z,24.20
2018-11-26T23:40:25.088Z,25.53
2018-11-26T23:42:53.836Z,29.83
2018-11-26T23:45:23.509Z,28.47
2018-11-26T23:47:52.401Z,24.63
2018-11-26T23:50:20.750Z,27.47
2018-11-26T23:52:49.036Z,26.10
2018-11-26T23:55:19.732Z,28.47
2018-11-26T23:57:48.030Z,26.37
